createdAt,value
2019-02-16T00:00:15.405Z,11.28
2019-02-16T00:02:51.363Z,11.88
2019-02-16T00:05:25.080Z,11.33
2019-02-16T00:07:58.040Z,11.27
2019-02-16T00:10:31.101Z,11.60
2019-02-16T00:13:03.001Z,10.23
2019-02-16T00:15:34.837Z,11.45
2019-02-16T00:18:06.688Z,11.33
2019-02-16T00:20:40.726Z,10.50
2019-02-16T00:23:12.596Z,11.45
2019-02-16T00:25:44.410Z,11.50
2019-02-16T00:28:16.288Z,11.22
2019-02-16T00:30:54.862Z,10.95
2019-02-16T00:33:29.654Z,11.15
2019-02-16T00:36:03.569Z,12.20
2019-02-16T00:38:35.426Z,11.45
2019-02-16T00:41:08.586Z,11.05
2019-02-16T00:43:40.427Z,10.85
2019-02-16T00:46:12.308Z,11.80
2019-02-16T00:48:46.866Z,10.40
2019-02-16T00:51:18.725Z,10.68
2019-02-16T00:53:50.575Z,11.03
2019-02-16T00:56:25.451Z,9.50
2019-02-16T00:58:57.333Z,10.05
2019-02-16T01:01:31.738Z,10.35
2019-02-16T01:04:05.629Z,10.00
2019-02-16T01:06:43.948Z,9.80
2019-02-16T01:09:15.844Z,9.43
2019-02-16T01:11:48.977Z,9.70
2019-02-16T01:14:23.515Z,9.13
2019-02-16T01:16:55.370Z,9.60
2019-02-16T01:19:31.132Z,8.80
2019-02-16T01:22:05.992Z,10.13
2019-02-16T01:24:37.843Z,9.10
2019-02-16T01:27:11.754Z,9.35
2019-02-16T01:29:43.573Z,9.33
2019-02-16T01:32:17.150Z,9.45
2019-02-16T01:34:48.979Z,9.30
2019-02-16T01:37:21.170Z,8.98
2019-02-16T01:39:58.574Z,9.00
2019-02-16T01:42:32.260Z,10.32
2019-02-16T01:45:04.176Z,9.88
2019-02-16T01:47:36.016Z,9.10
2019-02-16T01:50:09.280Z,8.53
2019-02-16T01:52:53.536Z,9.00
2019-02-16T01:55:25.396Z,8.45
2019-02-16T01:57:57.223Z,9.83
2019-02-16T02:00:34.195Z,10.08
2019-02-16T02:03:10.210Z,9.30
2019-02-16T02:05:43.474Z,9.68
2019-02-16T02:08:15.491Z,9.58
2019-02-16T02:10:52.564Z,8.78
2019-02-16T02:13:24.422Z,10.05
2019-02-16T02:15:56.277Z,8.93
2019-02-16T02:18:28.110Z,9.20
2019-02-16T02:20:59.935Z,9.15
2019-02-16T02:23:31.762Z,8.68
2019-02-16T02:26:06.666Z,9.20
2019-02-16T02:28:38.487Z,9.08
2019-02-16T02:31:10.264Z,9.23
2019-02-16T02:33:42.125Z,8.58
2019-02-16T02:36:16.262Z,9.18
2019-02-16T02:38:49.877Z,8.73
2019-02-16T02:41:21.652Z,9.23
2019-02-16T02:43:56.410Z,8.25
2019-02-16T02:46:28.182Z,8.80
2019-02-16T02:49:00.015Z,8.83
2019-02-16T02:51:31.842Z,8.45
2019-02-16T02:54:03.849Z,9.03
2019-02-16T02:56:35.755Z,8.23
2019-02-16T02:59:09.638Z,8.33
2019-02-16T03:01:41.456Z,8.00
2019-02-16T03:04:13.523Z,8.10
2019-02-16T03:06:45.319Z,9.00
2019-02-16T03:09:17.178Z,8.00
2019-02-16T03:11:49.008Z,8.35
2019-02-16T03:14:22.144Z,9.00
2019-02-16T03:16:53.959Z,8.48
2019-02-16T03:19:26.375Z,7.37
2019-02-16T03:22:02.704Z,8.85
2019-02-16T03:24:31.765Z,7.95
2019-02-16T03:27:34.316Z,8.20
2019-02-16T03:31:14.150Z,8.13
2019-02-16T03:34:05.296Z,8.15
2019-02-16T03:37:51.470Z,8.60
2019-02-16T03:40:24.700Z,8.20
2019-02-16T03:42:56.567Z,9.08
2019-02-16T03:45:30.826Z,8.03
2019-02-16T03:48:02.706Z,8.65
2019-02-16T03:50:34.537Z,9.20
2019-02-16T03:53:06.380Z,8.53
2019-02-16T03:55:38.252Z,8.88
2019-02-16T03:58:12.113Z,8.45
2019-02-16T04:00:43.597Z,8.13
2019-02-16T04:03:18.722Z,8.85
2019-02-16T04:05:50.541Z,9.20
2019-02-16T04:08:22.598Z,9.10
2019-02-16T04:10:54.422Z,9.48
2019-02-16T04:13:26.273Z,9.38
2019-02-16T04:15:59.243Z,9.70
2019-02-16T04:18:31.060Z,8.73
2019-02-16T04:21:02.929Z,8.88
2019-02-16T04:23:34.748Z,8.85
2019-02-16T04:26:09.556Z,9.88
2019-02-16T04:28:41.406Z,9.45
2019-02-16T04:31:13.245Z,9.15
2019-02-16T04:33:45.116Z,10.65
2019-02-16T04:36:19.466Z,10.38
2019-02-16T04:38:51.271Z,9.20
2019-02-16T04:41:23.139Z,9.10
2019-02-16T04:43:54.971Z,8.80
2019-02-16T04:46:27.801Z,9.68
2019-02-16T04:48:59.608Z,9.35
2019-02-16T04:51:32.538Z,8.68
2019-02-16T04:54:04.374Z,10.10
2019-02-16T04:56:37.206Z,8.70
2019-02-16T04:59:09.055Z,9.70
2019-02-16T05:01:40.893Z,9.78
2019-02-16T05:04:12.712Z,8.35
2019-02-16T05:06:44.537Z,9.40
2019-02-16T05:09:16.353Z,8.90
2019-02-16T05:11:48.651Z,9.35
2019-02-16T05:14:20.477Z,9.13
2019-02-16T05:16:52.317Z,7.80
2019-02-16T05:19:24.131Z,8.45
2019-02-16T05:21:55.965Z,9.03
2019-02-16T05:24:27.783Z,9.58
2019-02-16T05:26:59.733Z,9.43
2019-02-16T05:29:31.522Z,8.93
2019-02-16T05:32:03.363Z,10.50
2019-02-16T05:34:35.259Z,9.55
2019-02-16T05:37:10.067Z,8.93
2019-02-16T05:39:41.886Z,9.30
2019-02-16T05:42:13.740Z,9.60
2019-02-16T05:44:45.561Z,9.88
2019-02-16T05:47:17.399Z,9.23
2019-02-16T05:49:49.226Z,11.15
2019-02-16T05:52:21.113Z,10.20
2019-02-16T05:54:52.999Z,10.55
2019-02-16T05:57:25.933Z,12.55
2019-02-16T05:59:57.750Z,12.95
2019-02-16T06:02:32.555Z,15.35
2019-02-16T06:05:06.772Z,13.13
2019-02-16T06:07:38.616Z,12.25
2019-02-16T06:10:12.237Z,13.25
2019-02-16T06:12:44.090Z,11.30
2019-02-16T06:15:15.948Z,11.43
2019-02-16T06:17:47.810Z,13.18
2019-02-16T06:20:19.655Z,13.38
2019-02-16T06:22:51.485Z,11.53
2019-02-16T06:25:23.346Z,12.37
2019-02-16T06:27:55.188Z,12.47
2019-02-16T06:30:27.042Z,13.58
2019-02-16T06:32:58.860Z,12.65
2019-02-16T06:35:49.588Z,12.35
2019-02-16T06:38:21.468Z,11.65
2019-02-16T06:40:53.315Z,10.98
2019-02-16T06:43:25.209Z,11.05
2019-02-16T06:45:57.072Z,9.90
2019-02-16T06:48:28.905Z,9.70
2019-02-16T06:51:00.750Z,9.75
2019-02-16T06:53:32.992Z,10.30
2019-02-16T06:56:19.134Z,10.30
2019-02-16T06:58:51.001Z,10.18
2019-02-16T07:01:22.967Z,9.73
2019-02-16T07:03:54.806Z,10.08
2019-02-16T07:06:28.560Z,9.73
2019-02-16T07:09:00.413Z,9.08
2019-02-16T07:11:32.259Z,10.50
2019-02-16T07:14:04.110Z,10.32
2019-02-16T07:17:00.694Z,10.55
2019-02-16T07:19:36.046Z,10.65
2019-02-16T07:22:07.869Z,9.80
2019-02-16T07:24:39.695Z,10.20
2019-02-16T07:27:12.624Z,9.85
2019-02-16T07:29:44.450Z,10.88
2019-02-16T07:32:16.321Z,9.88
2019-02-16T07:34:48.141Z,11.22
2019-02-16T07:37:19.969Z,11.78
2019-02-16T07:39:51.802Z,12.20
2019-02-16T07:42:25.235Z,10.95
2019-02-16T07:45:10.039Z,10.40
2019-02-16T07:48:09.012Z,10.55
2019-02-16T07:50:48.009Z,10.25
2019-02-16T07:53:37.428Z,9.68
2019-02-16T07:56:31.227Z,10.45
2019-02-16T07:59:21.641Z,9.85
2019-02-16T08:02:13.871Z,10.68
2019-02-16T08:04:52.802Z,9.83
2019-02-16T08:07:33.029Z,8.95
2019-02-16T08:10:16.918Z,10.13
2019-02-16T08:13:06.316Z,9.35
2019-02-16T08:15:58.977Z,9.98
2019-02-16T08:18:45.671Z,10.53
2019-02-16T08:21:35.099Z,10.05
2019-02-16T08:24:28.389Z,11.57
2019-02-16T08:27:17.634Z,11.20
2019-02-16T08:30:08.778Z,11.20
2019-02-16T08:32:55.811Z,10.90
2019-02-16T08:35:46.641Z,10.70
2019-02-16T08:38:35.802Z,10.37
2019-02-16T08:41:45.203Z,9.93
2019-02-16T08:44:48.042Z,11.18
2019-02-16T08:47:34.835Z,9.90
2019-02-16T08:50:35.826Z,12.07
2019-02-16T08:53:19.602Z,11.90
2019-02-16T08:56:29.308Z,11.80
2019-02-16T08:59:13.768Z,10.17
2019-02-16T09:02:07.042Z,12.00
2019-02-16T09:05:09.524Z,10.80
2019-02-16T09:07:47.459Z,10.90
2019-02-16T09:10:37.752Z,11.27
2019-02-16T09:13:18.732Z,13.70
2019-02-16T09:16:08.073Z,16.87
2019-02-16T09:19:07.488Z,20.23
2019-02-16T09:21:57.926Z,15.27
2019-02-16T09:24:44.646Z,12.60
2019-02-16T09:27:33.392Z,11.57
2019-02-16T09:30:27.635Z,9.53
2019-02-16T09:33:28.189Z,9.83
2019-02-16T09:36:30.991Z,10.73
2019-02-16T09:39:27.540Z,11.57
2019-02-16T09:42:18.007Z,11.83
2019-02-16T09:45:03.676Z,10.73
2019-02-16T09:47:55.211Z,9.93
2019-02-16T09:50:54.842Z,9.40
2019-02-16T09:53:36.328Z,11.20
2019-02-16T09:56:45.136Z,11.10
2019-02-16T09:59:26.251Z,10.60
2019-02-16T10:02:19.458Z,10.50
2019-02-16T10:05:25.390Z,10.00
2019-02-16T10:08:14.058Z,10.17
2019-02-16T10:11:04.541Z,10.20
2019-02-16T10:13:50.323Z,10.30
2019-02-16T10:16:58.922Z,9.70
2019-02-16T10:19:36.949Z,9.60
2019-02-16T10:22:36.436Z,10.60
2019-02-16T10:25:29.968Z,9.70
2019-02-16T10:28:11.986Z,9.03
2019-02-16T10:31:00.744Z,9.63
2019-02-16T10:33:45.658Z,9.77
2019-02-16T10:36:36.117Z,10.37
2019-02-16T10:39:32.654Z,11.17
2019-02-16T10:42:35.253Z,10.23
2019-02-16T10:45:33.194Z,11.50
2019-02-16T10:48:31.598Z,11.10
2019-02-16T10:51:24.584Z,11.53
2019-02-16T10:54:28.098Z,11.67
2019-02-16T10:57:17.161Z,9.90
2019-02-16T11:00:10.415Z,10.77
2019-02-16T11:02:54.992Z,10.43
2019-02-16T11:05:42.857Z,10.90
2019-02-16T11:08:24.562Z,9.93
2019-02-16T11:11:15.315Z,11.68
2019-02-16T11:14:11.651Z,11.03
2019-02-16T11:17:09.605Z,11.63
2019-02-16T11:20:01.211Z,11.93
2019-02-16T11:23:13.511Z,13.10
2019-02-16T11:26:03.977Z,14.93
2019-02-16T11:28:49.708Z,12.70
2019-02-16T11:31:49.204Z,12.47
2019-02-16T11:34:37.197Z,12.00
2019-02-16T11:37:14.006Z,12.77
2019-02-16T11:40:07.701Z,12.47
2019-02-16T11:42:55.596Z,12.50
2019-02-16T11:45:58.393Z,12.13
2019-02-16T11:48:39.072Z,12.73
2019-02-16T11:51:30.556Z,12.73
2019-02-16T11:54:14.266Z,12.53
2019-02-16T11:57:13.082Z,13.50
2019-02-16T11:59:57.848Z,13.83
2019-02-16T12:02:42.376Z,13.10
2019-02-16T12:05:41.937Z,12.80
2019-02-16T12:08:24.495Z,12.60
2019-02-16T12:11:17.722Z,12.33
2019-02-16T12:13:57.722Z,12.73
2019-02-16T12:16:39.368Z,12.67
2019-02-16T12:19:35.660Z,12.37
2019-02-16T12:22:35.410Z,12.60
2019-02-16T12:25:41.169Z,11.73
2019-02-16T12:28:32.997Z,12.27
2019-02-16T12:31:27.018Z,12.70
2019-02-16T12:34:11.354Z,12.90
2019-02-16T12:37:17.231Z,12.73
2019-02-16T12:39:56.527Z,13.80
2019-02-16T12:42:47.934Z,12.40
2019-02-16T12:45:37.451Z,13.50
2019-02-16T12:48:27.948Z,13.07
2019-02-16T12:51:06.812Z,13.10
2019-02-16T12:54:06.424Z,13.33
2019-02-16T12:56:54.299Z,12.50
2019-02-16T12:59:49.923Z,12.53
2019-02-16T13:02:33.279Z,12.30
2019-02-16T13:05:33.095Z,12.23
2019-02-16T13:08:20.643Z,13.63
2019-02-16T13:10:59.485Z,12.37
2019-02-16T13:13:51.992Z,12.07
2019-02-16T13:16:48.998Z,12.40
2019-02-16T13:19:45.238Z,11.20
2019-02-16T13:22:40.265Z,11.83
2019-02-16T13:25:36.673Z,10.57
2019-02-16T13:28:32.911Z,10.73
2019-02-16T13:31:25.207Z,10.80
2019-02-16T13:34:17.386Z,9.90
2019-02-16T13:37:13.917Z,10.93
2019-02-16T13:40:07.585Z,10.57
2019-02-16T13:43:02.875Z,11.10
2019-02-16T13:45:59.743Z,11.37
2019-02-16T13:48:42.525Z,10.10
2019-02-16T13:51:28.571Z,10.33
2019-02-16T13:54:18.853Z,9.07
2019-02-16T13:57:08.143Z,9.90
2019-02-16T14:00:01.665Z,10.07
2019-02-16T14:03:02.555Z,10.20
2019-02-16T14:05:50.725Z,11.07
2019-02-16T14:08:55.810Z,10.40
2019-02-16T14:11:58.354Z,9.87
2019-02-16T14:14:38.484Z,12.33
2019-02-16T14:17:31.612Z,16.17
2019-02-16T14:20:03.599Z,13.50
2019-02-16T14:22:35.175Z,11.90
2019-02-16T14:25:09.538Z,12.83
2019-02-16T14:27:41.112Z,13.80
2019-02-16T14:30:13.406Z,13.07
2019-02-16T14:32:48.075Z,12.93
2019-02-16T14:35:20.816Z,11.67
2019-02-16T14:38:06.430Z,11.87
2019-02-16T14:40:41.243Z,10.70
2019-02-16T14:43:15.504Z,11.73
2019-02-16T14:45:50.112Z,9.60
2019-02-16T14:48:21.715Z,9.33
2019-02-16T14:50:53.324Z,10.50
2019-02-16T14:53:24.943Z,9.60
2019-02-16T14:55:56.608Z,9.07
2019-02-16T14:58:28.193Z,10.10
2019-02-16T15:00:59.838Z,9.30
2019-02-16T15:03:32.720Z,9.40
2019-02-16T15:06:07.369Z,8.20
2019-02-16T15:08:40.224Z,9.90
2019-02-16T15:11:13.330Z,7.27
2019-02-16T15:13:45.209Z,7.87
2019-02-16T15:16:18.005Z,7.87
2019-02-16T15:18:49.630Z,8.37
2019-02-16T15:21:24.132Z,8.40
2019-02-16T15:23:58.602Z,8.00
2019-02-16T15:26:32.461Z,9.63
2019-02-16T15:29:04.099Z,7.20
2019-02-16T15:31:35.693Z,7.40
2019-02-16T15:34:09.651Z,8.53
2019-02-16T15:36:44.575Z,8.10
2019-02-16T15:39:16.199Z,6.50
2019-02-16T15:41:48.148Z,7.33
2019-02-16T15:44:22.841Z,6.47
2019-02-16T15:46:58.479Z,6.70
2019-02-16T15:49:30.164Z,7.63
2019-02-16T15:52:03.486Z,6.73
2019-02-16T15:54:35.465Z,7.70
2019-02-16T15:57:09.770Z,8.00
2019-02-16T15:59:41.402Z,6.57
2019-02-16T16:02:15.441Z,7.50
2019-02-16T16:04:47.049Z,8.30
2019-02-16T16:07:21.247Z,8.13
2019-02-16T16:10:24.052Z,9.20
2019-02-16T16:13:15.390Z,7.67
2019-02-16T16:15:58.151Z,7.40
2019-02-16T16:18:40.306Z,8.30
2019-02-16T16:21:33.572Z,8.23
2019-02-16T16:24:22.987Z,8.20
2019-02-16T16:27:16.225Z,10.03
2019-02-16T16:29:58.957Z,8.80
2019-02-16T16:32:42.110Z,9.60
2019-02-16T16:35:20.745Z,8.90
2019-02-16T16:38:12.682Z,8.00
2019-02-16T16:41:04.828Z,8.03
2019-02-16T16:44:00.038Z,8.47
2019-02-16T16:46:51.288Z,9.03
2019-02-16T16:49:48.877Z,11.47
2019-02-16T16:52:33.825Z,10.40
2019-02-16T16:55:27.399Z,11.60
2019-02-16T16:58:30.170Z,16.43
2019-02-16T17:01:34.346Z,15.30
2019-02-16T17:04:23.306Z,10.30
2019-02-16T17:07:15.337Z,12.77
2019-02-16T17:10:05.851Z,11.10
2019-02-16T17:12:50.982Z,13.93
2019-02-16T17:15:38.449Z,27.43
2019-02-16T17:18:44.128Z,20.97
2019-02-16T17:21:34.600Z,13.40
2019-02-16T17:24:35.096Z,20.10
2019-02-16T17:27:13.756Z,17.73
2019-02-16T17:30:10.192Z,15.37
2019-02-16T17:32:51.977Z,13.23
2019-02-16T17:35:39.701Z,22.90
2019-02-16T17:38:29.959Z,33.73
2019-02-16T17:41:46.690Z,21.90
2019-02-16T17:44:31.923Z,14.13
2019-02-16T17:47:12.396Z,12.80
2019-02-16T17:50:02.960Z,13.73
2019-02-16T17:53:08.553Z,13.13
2019-02-16T17:56:03.659Z,15.57
2019-02-16T17:58:57.188Z,15.80
2019-02-16T18:01:52.367Z,16.70
2019-02-16T18:04:44.968Z,12.50
2019-02-16T18:07:44.635Z,12.70
2019-02-16T18:10:31.380Z,12.87
2019-02-16T18:13:11.147Z,11.03
2019-02-16T18:15:54.929Z,11.50
2019-02-16T18:18:48.524Z,13.33
2019-02-16T18:21:26.758Z,11.67
2019-02-16T18:24:29.138Z,13.57
2019-02-16T18:27:39.345Z,12.47
2019-02-16T18:30:35.946Z,12.10
2019-02-16T18:33:20.697Z,10.97
2019-02-16T18:36:09.594Z,10.23
2019-02-16T18:39:10.519Z,11.73
2019-02-16T18:41:59.850Z,11.53
2019-02-16T18:45:02.580Z,14.43
2019-02-16T18:48:08.408Z,14.17
2019-02-16T18:50:57.940Z,12.83
2019-02-16T18:53:48.521Z,12.27
2019-02-16T18:56:35.573Z,12.13
2019-02-16T18:59:15.523Z,13.57
2019-02-16T19:02:09.144Z,12.50
2019-02-16T19:04:52.577Z,11.70
2019-02-16T19:07:49.348Z,12.50
2019-02-16T19:10:30.748Z,13.23
2019-02-16T19:16:12.151Z,13.33
2019-02-16T19:18:58.459Z,14.10
2019-02-16T19:21:47.288Z,13.07
2019-02-16T19:24:40.063Z,17.60
2019-02-16T19:27:26.442Z,15.10
2019-02-16T19:30:16.829Z,16.17
2019-02-16T19:33:19.726Z,14.87
2019-02-16T19:36:25.671Z,14.40
2019-02-16T19:39:31.579Z,15.87
2019-02-16T19:42:23.977Z,17.32
2019-02-16T19:45:13.195Z,15.40
2019-02-16T19:47:59.126Z,14.30
2019-02-16T19:50:48.814Z,14.37
2019-02-16T19:53:45.091Z,20.07
2019-02-16T19:56:50.945Z,17.63
2019-02-16T19:59:50.787Z,16.07
2019-02-16T20:02:28.435Z,16.80
2019-02-16T20:05:24.934Z,16.13
2019-02-16T20:08:15.493Z,15.60
2019-02-16T20:10:58.386Z,17.23
2019-02-16T20:13:49.843Z,16.80
2019-02-16T20:16:30.065Z,18.30
2019-02-16T20:19:22.532Z,17.47
2019-02-16T20:22:12.975Z,16.37
2019-02-16T20:25:15.431Z,18.33
2019-02-16T20:28:05.907Z,17.40
2019-02-16T20:31:05.673Z,17.03
2019-02-16T20:33:56.164Z,15.67
2019-02-16T20:36:51.403Z,15.37
2019-02-16T20:39:50.990Z,13.90
2019-02-16T20:42:56.760Z,14.37
2019-02-16T20:45:40.389Z,13.97
2019-02-16T20:48:46.984Z,13.30
2019-02-16T20:51:48.908Z,14.27
2019-02-16T20:54:30.942Z,13.17
2019-02-16T20:57:10.370Z,13.20
2019-02-16T20:59:49.714Z,13.57
2019-02-16T21:02:52.147Z,17.73
2019-02-16T21:05:45.688Z,16.40
2019-02-16T21:08:42.473Z,15.40
2019-02-16T21:11:48.330Z,15.57
2019-02-16T21:14:39.526Z,12.97
2019-02-16T21:17:32.759Z,11.60
2019-02-16T21:20:35.623Z,12.90
2019-02-16T21:23:35.948Z,12.90
2019-02-16T21:26:36.604Z,12.50
2019-02-16T21:29:20.424Z,13.20
2019-02-16T21:32:05.057Z,15.10
2019-02-16T21:34:47.156Z,12.77
2019-02-16T21:37:43.447Z,13.30
2019-02-16T21:40:30.339Z,13.27
2019-02-16T21:43:20.556Z,16.23
2019-02-16T21:46:09.721Z,16.80
2019-02-16T21:48:46.975Z,16.43
2019-02-16T21:51:42.801Z,17.53
2019-02-16T21:54:34.802Z,15.30
2019-02-16T21:57:19.515Z,16.07
2019-02-16T22:00:06.287Z,16.10
2019-02-16T22:03:05.935Z,16.63
2019-02-16T22:05:54.676Z,17.30
2019-02-16T22:08:51.000Z,16.60
2019-02-16T22:11:44.285Z,15.10
2019-02-16T22:14:15.929Z,14.93
2019-02-16T22:16:47.518Z,13.70
2019-02-16T22:19:19.319Z,14.40
2019-02-16T22:21:50.927Z,14.27
2019-02-16T22:24:22.631Z,15.13
2019-02-16T22:26:54.266Z,13.57
2019-02-16T22:29:25.910Z,13.97
2019-02-16T22:31:58.676Z,14.13
2019-02-16T22:34:30.448Z,14.70
2019-02-16T22:37:02.015Z,16.07
2019-02-16T22:39:33.646Z,16.23
2019-02-16T22:42:06.322Z,17.17
2019-02-16T22:44:37.956Z,15.20
2019-02-16T22:47:09.501Z,13.93
2019-02-16T22:49:42.383Z,15.60
2019-02-16T22:52:13.946Z,17.03
2019-02-16T22:54:48.455Z,15.80
2019-02-16T22:57:21.204Z,15.90
2019-02-16T22:59:52.778Z,15.50
2019-02-16T23:02:24.648Z,15.00
2019-02-16T23:04:56.217Z,15.10
2019-02-16T23:07:27.929Z,14.10
2019-02-16T23:09:59.560Z,14.23
2019-02-16T23:12:31.389Z,14.40
2019-02-16T23:15:02.980Z,13.70
2019-02-16T23:17:35.774Z,14.90
2019-02-16T23:20:28.290Z,15.10
2019-02-16T23:22:59.908Z,14.30
2019-02-16T23:25:31.502Z,15.10
2019-02-16T23:28:03.364Z,14.18
2019-02-16T23:30:35.203Z,16.40
2019-02-16T23:33:06.826Z,15.87
2019-02-16T23:35:38.678Z,14.33
2019-02-16T23:38:10.557Z,15.50
2019-02-16T23:40:42.118Z,16.43
2019-02-16T23:43:13.711Z,14.73
2019-02-16T23:45:45.586Z,15.30
2019-02-16T23:48:17.462Z,15.30
2019-02-16T23:50:49.312Z,15.18
2019-02-16T23:53:21.391Z,14.85
2019-02-16T23:55:53.233Z,15.80
2019-02-16T23:58:25.245Z,15.08
